Time;durP1;ratioP1;P1;durP2;ratioP2;P2;SDS_P1;SDS_P2;PMS_P1;PMS_P2;Temp;Humidity;BMP_temperature;BMP_pressure;BME280_temperature;BME280_humidity;BME280_pressure;Samples;Min_cycle;Max_cycle;Signal;HPM_P1;HPM_P2
2021/06/27 00:00:55;;;;;;;13.27;5.88;;;17.20;99.90;;;16.52;79.00;97569.56;5029915;28;20054;-66
2021/06/27 00:03:43;;;;;;;8.77;5.70;;;17.20;99.90;;;16.47;79.64;97566.44;5029818;28;20100;-66
2021/06/27 00:06:30;;;;;;;11.98;5.43;;;17.10;99.90;;;16.37;79.86;97562.72;5017033;28;20042;-65
2021/06/27 00:09:17;;;;;;;9.15;6.25;;;17.10;99.90;;;16.28;80.33;97565.03;5029032;28;20042;-64
2021/06/27 00:12:05;;;;;;;8.38;5.55;;;17.00;99.90;;;16.30;79.93;97570.97;5016419;28;20037;-66
2021/06/27 00:14:53;;;;;;;13.82;6.40;;;16.90;99.90;;;16.26;79.97;97576.53;5027953;28;20041;-67
2021/06/27 00:17:41;;;;;;;9.68;5.75;;;16.90;99.90;;;16.31;79.55;97572.69;5023725;28;20437;-67
2021/06/27 00:20:31;;;;;;;8.30;6.28;;;16.90;99.90;;;16.13;80.46;97567.81;5013367;28;20113;-67
2021/06/27 00:23:23;;;;;;;15.35;9.35;;;16.80;99.90;;;16.13;80.17;97566.03;5030394;28;20041;-67
2021/06/27 00:26:13;;;;;;;15.20;8.90;;;16.80;99.90;;;16.10;80.13;97563.59;5028731;28;20417;-67
2021/06/27 00:29:00;;;;;;;14.82;6.75;;;16.80;99.90;;;16.12;80.01;97566.13;5015421;28;20050;-67
2021/06/27 00:31:47;;;;;;;13.13;6.50;;;16.80;99.90;;;15.99;80.63;97559.06;5030185;28;20045;-67
2021/06/27 00:34:35;;;;;;;10.20;5.78;;;16.70;99.90;;;15.91;81.28;97552.66;5027012;28;20117;-67
2021/06/27 00:37:22;;;;;;;12.77;6.60;;;16.70;99.90;;;15.91;81.17;97556.09;5028138;28;20046;-67
2021/06/27 00:40:15;;;;;;;10.55;6.28;;;16.60;99.90;;;15.84;81.44;97558.28;5024364;28;20041;-67
2021/06/27 00:43:04;;;;;;;9.25;6.75;;;16.50;99.90;;;15.83;81.51;97554.00;5023933;28;20080;-67
2021/06/27 00:45:52;;;;;;;9.63;6.25;;;16.60;99.90;;;15.88;80.77;97549.28;5028492;28;20119;-67
2021/06/27 00:48:40;;;;;;;7.55;6.00;;;16.50;99.90;;;15.84;80.97;97554.81;5026387;28;20300;-67
2021/06/27 00:51:27;;;;;;;10.23;5.93;;;16.50;99.90;;;15.96;80.04;97550.56;5027050;28;20041;-67
2021/06/27 00:54:15;;;;;;;10.82;5.72;;;16.60;99.90;;;15.99;79.78;97553.84;5012453;28;20044;-66
2021/06/27 00:57:04;;;;;;;7.88;5.22;;;16.60;99.90;;;16.01;79.68;97557.19;5025523;28;20118;-67
2021/06/27 00:59:51;;;;;;;8.95;4.97;;;16.70;99.90;;;16.06;78.94;97562.13;5023339;28;20157;-67
2021/06/27 01:02:39;;;;;;;8.82;6.25;;;16.70;99.90;;;16.01;79.22;97559.81;5027053;28;20065;-67
2021/06/27 01:05:32;;;;;;;9.18;6.00;;;16.70;99.90;;;15.97;79.40;97563.56;5022318;28;20087;-67
2021/06/27 01:08:20;;;;;;;;;;;16.60;99.90;;;15.90;80.07;97572.75;5028722;28;20037;-67
2021/06/27 01:11:07;;;;;;;7.15;5.93;;;16.60;99.90;;;15.90;79.33;97580.59;5018832;28;19925;-67
2021/06/27 01:13:55;;;;;;;10.93;5.93;;;16.60;99.90;;;15.81;80.14;97583.81;5025376;28;20097;-67
2021/06/27 01:16:43;;;;;;;10.77;6.18;;;16.50;99.90;;;15.66;80.72;97578.56;5021099;28;20603;-67
2021/06/27 01:19:32;;;;;;;8.48;6.50;;;16.40;99.90;;;15.65;80.72;97579.50;5029221;28;20138;-67
2021/06/27 01:22:20;;;;;;;9.13;6.38;;;16.40;99.90;;;15.53;81.63;97572.44;5022207;28;20089;-67
2021/06/27 01:25:10;;;;;;;11.13;7.68;;;16.30;99.90;;;15.48;81.82;97575.31;5017370;28;20092;-67
2021/06/27 01:27:58;;;;;;;18.20;6.82;;;16.20;99.90;;;15.48;81.98;97577.09;5016781;28;20115;-67
2021/06/27 01:30:46;;;;;;;9.60;6.82;;;16.20;99.90;;;15.46;82.30;97576.34;5021694;28;20060;-67
2021/06/27 01:33:34;;;;;;;9.73;7.43;;;16.10;99.90;;;15.38;82.38;97578.63;5021760;28;20034;-67
2021/06/27 01:36:22;;;;;;;9.40;6.70;;;16.10;99.90;;;15.37;82.71;97576.94;5005194;28;20048;-67
2021/06/27 01:39:10;;;;;;;8.65;5.70;;;16.10;99.90;;;15.49;81.46;97573.56;5027108;28;20048;-67
2021/06/27 01:41:57;;;;;;;8.20;6.13;;;16.20;99.90;;;15.38;82.04;97576.84;5020710;28;20518;-67
2021/06/27 01:44:44;;;;;;;11.38;5.10;;;16.20;99.90;;;15.36;81.16;97581.31;5012305;28;20080;-67
2021/06/27 01:47:31;;;;;;;8.32;5.40;;;16.10;99.90;;;15.27;81.59;97581.91;5011498;28;20042;-67
2021/06/27 01:50:19;;;;;;;13.75;6.03;;;16.00;99.90;;;15.19;81.97;97579.75;5024660;28;20049;-67
2021/06/27 01:53:10;;;;;;;8.32;5.88;;;15.80;99.90;;;15.24;81.74;97572.47;5018344;28;20188;-67
2021/06/27 01:56:05;;;;;;;10.70;6.35;;;15.90;99.90;;;15.17;82.74;97565.09;5019114;28;20038;-67
2021/06/27 01:58:52;;;;;;;14.80;7.47;;;15.80;99.90;;;15.10;83.50;97567.25;5022535;28;20174;-67
2021/06/27 02:01:41;;;;;;;8.25;6.65;;;15.80;99.90;;;15.13;82.69;97556.59;5017657;28;20050;-67
2021/06/27 02:04:29;;;;;;;10.00;6.65;;;15.90;99.90;;;14.91;83.19;97551.81;5026562;28;20399;-67
2021/06/27 02:07:16;;;;;;;9.18;5.70;;;15.80;99.90;;;14.91;83.19;97537.94;5023194;28;20045;-67
2021/06/27 02:10:12;;;;;;;13.48;6.30;;;15.80;99.90;;;14.87;83.51;97534.69;5022023;28;20038;-67
2021/06/27 02:12:59;;;;;;;11.75;7.45;;;15.60;99.90;;;14.76;84.41;97526.66;5029092;28;20041;-67
2021/06/27 02:15:47;;;;;;;12.00;7.05;;;15.60;99.90;;;14.75;85.06;97523.16;5019627;28;20041;-66
2021/06/27 02:18:41;;;;;;;9.73;6.80;;;15.60;99.90;;;14.87;84.60;97518.13;5021904;28;20045;-67
2021/06/27 02:21:35;;;;;;;11.50;7.75;;;15.60;99.90;;;14.84;84.63;97503.50;5015971;28;20501;-67
2021/06/27 02:24:22;;;;;;;12.88;8.07;;;15.60;99.90;;;14.73;85.05;97487.63;5026551;28;20191;-66
2021/06/27 02:27:10;;;;;;;13.57;7.30;;;15.60;99.90;;;14.73;85.37;97487.63;5021283;28;20041;-66
2021/06/27 02:29:57;;;;;;;9.40;7.68;;;15.60;99.90;;;14.84;84.55;97478.19;5003506;28;20038;-66
2021/06/27 02:32:44;;;;;;;8.73;7.22;;;15.50;99.90;;;14.94;84.04;97485.47;5028775;28;20096;-69
2021/06/27 02:35:32;;;;;;;10.23;7.15;;;15.60;99.90;;;14.99;83.74;97494.72;5023496;28;20045;-66
2021/06/27 02:38:20;;;;;;;12.40;8.30;;;15.70;99.90;;;14.91;84.67;97496.94;5027856;28;20065;-69
2021/06/27 02:41:09;;;;;;;7.38;6.10;;;15.80;99.90;;;15.18;82.30;97501.41;5026620;28;20432;-69
2021/06/27 02:43:56;;;;;;;10.15;6.30;;;15.80;99.90;;;14.98;82.91;97498.25;5009489;28;20045;-68
2021/06/27 02:46:43;;;;;;;14.20;7.13;;;15.80;99.90;;;14.95;83.56;97485.38;5024535;28;20545;-68
2021/06/27 02:49:31;;;;;;;9.85;8.32;;;15.70;99.90;;;14.93;83.67;97482.00;5029336;28;20060;-68
2021/06/27 02:52:18;;;;;;;12.23;8.02;;;15.70;99.90;;;14.91;84.48;97472.59;5031654;28;20072;-68
2021/06/27 02:55:10;;;;;;;11.10;7.57;;;15.60;99.90;;;14.97;84.10;97485.28;5027726;28;20508;-69
2021/06/27 02:57:57;;;;;;;11.65;7.50;;;15.70;99.90;;;15.02;84.01;97493.69;4995335;28;20108;-68
2021/06/27 03:00:44;;;;;;;11.38;7.50;;;15.70;99.90;;;15.06;83.62;97487.34;5009224;28;20087;-68
2021/06/27 03:03:32;;;;;;;11.30;7.50;;;15.80;99.90;;;15.05;83.73;97498.72;5028989;28;20164;-68
2021/06/27 03:06:20;;;;;;;10.00;7.38;;;15.80;99.90;;;15.12;82.84;97481.72;5024683;28;20065;-68
2021/06/27 03:09:07;;;;;;;10.57;8.35;;;15.80;99.90;;;14.96;84.33;97470.53;5030300;28;20598;-68
2021/06/27 03:11:54;;;;;;;10.02;7.57;;;15.70;99.90;;;15.05;83.98;97475.19;5033205;28;20041;-69
2021/06/27 03:14:43;;;;;;;8.00;6.32;;;15.80;99.90;;;15.18;83.10;97486.56;5024814;28;20099;-68
2021/06/27 03:17:30;;;;;;;9.32;7.35;;;15.80;99.90;;;15.15;83.29;97492.00;5024455;28;20167;-66
2021/06/27 03:20:17;;;;;;;6.35;5.60;;;15.80;99.90;;;15.19;82.49;97495.22;5027494;28;20045;-68
2021/06/27 03:23:04;;;;;;;10.18;8.20;;;15.90;99.90;;;15.00;84.08;97493.75;5014569;28;20037;-68
2021/06/27 03:25:53;;;;;;;10.05;7.97;;;15.80;99.90;;;14.88;85.05;97494.53;5014062;28;20074;-68
2021/06/27 03:28:43;;;;;;;14.27;8.23;;;15.70;99.90;;;14.86;85.18;97475.50;5021836;28;20171;-68
2021/06/27 03:31:31;;;;;;;10.55;8.00;;;15.60;99.90;;;14.89;85.19;97466.63;5013558;28;20046;-68
2021/06/27 03:34:18;;;;;;;10.77;7.75;;;15.60;99.90;;;14.92;84.88;97471.69;5020111;28;20061;-68
2021/06/27 03:37:06;;;;;;;11.13;7.25;;;15.60;99.90;;;14.92;84.97;97461.22;5016893;28;20115;-68
2021/06/27 03:39:53;;;;;;;13.70;7.05;;;15.70;99.90;;;15.04;84.14;97466.50;5012620;28;20081;-68
2021/06/27 03:42:40;;;;;;;8.85;7.50;;;15.70;99.90;;;15.14;83.61;97473.78;5028712;28;20048;-69
2021/06/27 03:45:31;;;;;;;10.27;7.00;;;15.80;99.90;;;15.12;83.28;97466.03;5020114;28;20462;-68
2021/06/27 03:48:18;;;;;;;11.52;7.60;;;15.80;99.90;;;15.01;83.33;97478.94;5016515;28;20038;-67
2021/06/27 03:51:06;;;;;;;11.35;7.38;;;15.70;99.90;;;15.01;83.41;97464.09;5020608;28;20120;-68
2021/06/27 03:53:53;;;;;;;7.38;6.30;;;15.70;99.90;;;15.02;83.75;97457.09;5024396;28;20180;-67
2021/06/27 03:56:42;;;;;;;8.93;6.38;;;15.80;99.90;;;15.04;83.66;97456.06;5028737;28;20506;-67
2021/06/27 03:59:30;;;;;;;11.30;7.50;;;15.80;99.90;;;15.14;82.82;97472.00;5025321;28;20588;-67
2021/06/27 04:02:17;;;;;;;10.80;7.68;;;15.80;99.90;;;14.99;84.22;97473.81;5026757;28;20440;-66
2021/06/27 04:05:05;;;;;;;9.05;6.88;;;15.80;99.90;;;15.02;84.13;97475.38;5014698;28;20517;-68
2021/06/27 04:07:53;;;;;;;11.32;7.60;;;15.80;99.90;;;15.09;83.63;97474.06;5032728;28;20123;-68
2021/06/27 04:10:40;;;;;;;9.50;7.40;;;15.80;99.90;;;15.06;83.64;97474.25;5025960;28;20073;-67
2021/06/27 04:13:31;;;;;;;11.13;6.68;;;15.80;99.90;;;15.21;82.90;97486.38;5026240;28;20037;-67
2021/06/27 04:16:18;;;;;;;8.65;7.00;;;15.90;99.90;;;15.21;83.10;97489.00;5023894;28;20042;-67
2021/06/27 04:19:06;;;;;;;7.93;5.90;;;15.90;99.90;;;15.41;81.97;97484.28;5023045;28;20209;-67
2021/06/27 04:21:53;;;;;;;11.63;6.55;;;16.00;99.90;;;15.41;82.16;97474.63;5028119;28;20783;-67
2021/06/27 04:24:41;;;;;;;8.05;6.60;;;16.10;99.90;;;15.32;82.87;97475.22;5030662;28;20612;-67
2021/06/27 04:27:29;;;;;;;9.60;6.43;;;16.10;99.90;;;15.44;82.65;97470.97;5030172;28;20048;-67
2021/06/27 04:30:17;;;;;;;11.05;7.13;;;16.10;99.90;;;15.48;82.51;97472.47;5003161;28;20096;-67
2021/06/27 04:33:06;;;;;;;9.45;6.30;;;16.30;99.90;;;15.61;82.07;97464.69;5029740;28;20042;-67
2021/06/27 04:35:54;;;;;;;9.43;6.85;;;16.30;99.90;;;15.71;81.95;97464.94;5009979;28;20049;-67
2021/06/27 04:38:41;;;;;;;8.57;5.65;;;16.50;99.90;;;15.85;81.30;97470.13;5025691;28;20128;-67
2021/06/27 04:41:28;;;;;;;11.02;6.95;;;16.50;99.90;;;15.95;80.94;97465.13;5026268;28;20056;-68
2021/06/27 04:44:15;;;;;;;12.70;8.85;;;16.70;99.90;;;15.47;83.15;97461.19;5031241;28;20108;-67
2021/06/27 04:47:03;;;;;;;11.35;7.57;;;16.70;99.90;;;15.77;82.15;97459.31;5019978;28;20146;-67
2021/06/27 04:49:51;;;;;;;7.28;6.50;;;16.60;99.90;;;16.12;81.09;97454.34;5029319;28;20076;-67
2021/06/27 04:52:38;;;;;;;9.82;6.88;;;16.80;99.90;;;16.36;81.00;97459.75;5023042;28;20045;-68
2021/06/27 04:55:26;;;;;;;14.40;6.68;;;17.10;99.90;;;16.62;80.37;97452.69;5013382;28;20049;-68
2021/06/27 04:58:13;;;;;;;10.40;6.22;;;17.40;99.90;;;16.86;80.11;97454.59;5023447;28;20073;-67
2021/06/27 05:01:00;;;;;;;9.05;7.05;;;17.70;99.90;;;16.97;78.77;97457.31;5028866;28;20038;-67
2021/06/27 05:03:48;;;;;;;9.32;6.53;;;18.00;99.90;;;17.29;77.39;97448.94;5027748;28;20057;-68
2021/06/27 05:06:35;;;;;;;8.88;6.60;;;18.10;99.90;;;16.93;79.11;97451.44;5026339;28;20115;-67
2021/06/27 05:09:22;;;;;;;7.45;6.53;;;18.20;99.90;;;17.29;78.52;97444.53;5016262;28;20797;-67
2021/06/27 05:12:10;;;;;;;8.13;6.00;;;18.20;99.90;;;17.65;77.74;97441.94;5027894;28;20033;-67
2021/06/27 05:14:58;;;;;;;7.43;6.47;;;18.40;99.90;;;17.72;77.79;97441.41;5017152;28;20418;-66
2021/06/27 05:17:45;;;;;;;9.65;5.53;;;18.40;99.90;;;17.82;77.75;97441.59;5020235;28;20450;-68
2021/06/27 05:20:32;;;;;;;8.35;6.43;;;18.70;99.90;;;18.02;78.43;97442.72;5028422;28;20115;-68
2021/06/27 05:23:20;;;;;;;10.00;6.03;;;18.80;99.90;;;18.08;78.09;97454.56;5015892;28;20045;-65
2021/06/27 05:26:07;;;;;;;7.00;6.30;;;18.90;99.90;;;18.12;78.27;97451.59;5025271;28;20053;-67
2021/06/27 05:28:54;;;;;;;11.95;6.18;;;18.90;99.90;;;18.07;79.53;97458.97;5028316;28;20045;-67
2021/06/27 05:31:42;;;;;;;11.77;7.75;;;18.90;99.90;;;17.92;79.09;97465.38;5030908;28;20419;-67
2021/06/27 05:34:30;;;;;;;8.63;6.57;;;18.80;99.90;;;17.90;79.68;97462.00;5004500;28;20045;-65
2021/06/27 05:37:17;;;;;;;7.53;6.47;;;18.80;99.90;;;17.91;78.40;97454.03;5025700;28;20041;-67
2021/06/27 05:40:06;;;;;;;7.70;6.60;;;18.80;99.90;;;17.87;79.50;97462.25;5025716;28;20532;-67
2021/06/27 05:42:55;;;;;;;7.88;6.28;;;18.80;99.90;;;17.79;79.73;97454.91;5032446;28;20119;-68
2021/06/27 05:45:42;;;;;;;11.75;7.03;;;18.70;99.90;;;17.91;80.23;97451.41;5029601;28;20077;-67
2021/06/27 05:48:30;;;;;;;7.68;6.03;;;18.80;99.90;;;18.01;79.33;97448.09;5029661;28;20506;-67
2021/06/27 05:51:18;;;;;;;8.77;6.13;;;18.80;99.90;;;18.13;79.08;97450.66;5028891;28;20128;-66
2021/06/27 05:54:05;;;;;;;8.15;5.85;;;18.90;99.90;;;18.13;78.58;97452.41;5018923;28;20131;-66
2021/06/27 05:56:52;;;;;;;7.45;6.25;;;19.00;99.90;;;18.03;78.78;97441.78;5002765;28;20048;-66
2021/06/27 05:59:40;;;;;;;8.45;6.05;;;19.00;99.90;;;18.05;78.88;97441.66;5029509;28;20045;-67
2021/06/27 06:02:27;;;;;;;11.45;7.18;;;19.00;99.90;;;18.15;78.51;97442.63;5028094;28;20065;-65
2021/06/27 06:05:14;;;;;;;9.65;6.00;;;19.20;99.90;;;18.29;77.14;97445.06;5029253;28;20049;-66
2021/06/27 06:08:01;;;;;;;9.35;5.93;;;19.40;99.90;;;18.58;76.44;97441.97;5027741;28;20099;-66
2021/06/27 06:10:48;;;;;;;9.55;6.95;;;19.60;99.90;;;18.63;74.16;97439.81;5028294;28;20069;-66
2021/06/27 06:13:37;;;;;;;9.43;6.13;;;19.70;99.90;;;19.09;74.80;97446.78;5029677;28;20078;-66
2021/06/27 06:16:30;;;;;;;7.97;6.20;;;20.00;99.90;;;19.11;72.93;97446.66;5029329;28;20409;-66
2021/06/27 06:19:19;;;;;;;8.65;6.18;;;20.20;99.90;;;19.20;72.25;97436.25;5022240;28;20502;-66
2021/06/27 06:22:07;;;;;;;6.32;5.70;;;20.40;99.90;;;19.43;72.19;97438.81;5033033;28;20502;-65
2021/06/27 06:24:54;;;;;;;8.50;5.38;;;20.50;99.90;;;19.56;72.23;97434.22;5033014;28;20038;-66
2021/06/27 06:27:41;;;;;;;6.15;5.47;;;20.70;99.90;;;19.79;71.15;97439.44;5031170;28;20407;-66
2021/06/27 06:30:29;;;;;;;9.00;5.88;;;20.90;99.90;;;19.82;69.87;97437.41;5031331;28;20091;-66
2021/06/27 06:33:16;;;;;;;6.90;5.00;;;20.90;99.90;;;19.84;70.21;97430.22;5026325;28;20394;-65
2021/06/27 06:36:04;;;;;;;10.25;5.70;;;21.00;99.90;;;19.97;70.42;97440.53;5026099;28;20050;-66
2021/06/27 06:38:52;;;;;;;5.22;4.72;;;21.10;99.90;;;19.92;69.49;97440.09;5017987;28;20187;-65
2021/06/27 06:41:39;;;;;;;6.15;4.55;;;21.20;99.90;;;20.14;69.53;97443.56;5029985;28;20142;-65
2021/06/27 06:44:26;;;;;;;5.97;4.60;;;21.30;99.90;;;20.25;69.08;97444.38;5023295;28;20132;-65
2021/06/27 06:47:14;;;;;;;6.10;4.68;;;21.60;99.90;;;20.59;68.97;97441.50;5020703;28;20105;-66
2021/06/27 06:50:01;;;;;;;7.13;5.15;;;21.80;99.90;;;20.81;67.27;97443.16;5028694;28;20413;-65
2021/06/27 06:52:49;;;;;;;6.13;5.05;;;22.00;99.90;;;21.17;67.05;97437.44;5028272;28;20049;-66
2021/06/27 06:55:36;;;;;;;6.60;4.50;;;22.20;99.90;;;21.16;65.85;97439.22;5014010;28;20398;-66
2021/06/27 06:58:28;;;;;;;7.78;4.45;;;22.40;99.90;;;21.43;65.97;97435.16;5031040;28;20037;-65
2021/06/27 07:01:17;;;;;;;5.75;4.00;;;22.60;99.90;;;21.68;65.22;97433.78;5030749;28;20103;-66
2021/06/27 07:04:04;;;;;;;6.97;4.78;;;22.80;99.90;;;21.70;64.49;97437.13;5030915;28;20046;-66
2021/06/27 07:06:52;;;;;;;5.45;3.70;;;23.00;99.90;;;21.63;64.77;97436.00;5027589;28;20513;-66
2021/06/27 07:09:39;;;;;;;3.90;3.50;;;23.00;99.90;;;21.81;64.12;97444.91;5013946;28;21706;-65
2021/06/27 07:12:26;;;;;;;5.43;3.58;;;23.00;99.90;;;22.11;64.05;97441.28;5021125;28;20037;-66
2021/06/27 07:15:14;;;;;;;4.57;3.60;;;23.30;99.90;;;22.26;62.59;97443.50;5032016;28;20044;-67
2021/06/27 07:18:02;;;;;;;5.43;3.63;;;23.40;99.90;;;22.37;61.71;97443.34;5030954;28;20572;-65
2021/06/27 07:20:50;;;;;;;5.63;3.92;;;23.60;99.90;;;22.39;60.97;97440.56;5024773;28;20603;-66
2021/06/27 07:23:37;;;;;;;5.88;4.10;;;23.60;99.90;;;22.64;61.45;97447.88;5030013;28;20065;-66
2021/06/27 07:26:25;;;;;;;5.18;3.70;;;23.90;99.90;;;23.04;58.83;97441.47;5023969;28;20215;-66
2021/06/27 07:29:12;;;;;;;4.40;3.22;;;24.00;99.90;;;23.09;58.37;97443.69;5028934;28;20041;-65
2021/06/27 07:32:00;;;;;;;4.43;3.47;;;24.00;99.90;;;23.47;58.09;97445.28;5026477;28;20041;-65
2021/06/27 07:34:47;;;;;;;4.30;3.58;;;24.40;99.90;;;23.33;57.84;97449.28;5005891;28;20073;-66
2021/06/27 07:37:35;;;;;;;3.97;3.25;;;24.60;99.90;;;23.66;57.88;97436.34;5025934;28;20034;-65
2021/06/27 07:40:22;;;;;;;5.65;2.80;;;24.80;99.90;;;23.60;56.84;97434.31;5014198;28;20069;-65
2021/06/27 07:43:09;;;;;;;3.50;2.67;;;24.80;99.90;;;24.07;56.66;97434.09;5030366;28;20064;-66
2021/06/27 07:45:57;;;;;;;5.45;3.35;;;25.20;99.90;;;24.47;55.13;97439.84;5027125;28;20041;-65
2021/06/27 07:48:45;;;;;;;5.90;3.15;;;25.30;99.90;;;24.82;53.56;97442.41;5024998;28;20057;-65
2021/06/27 07:51:32;;;;;;;4.80;2.58;;;25.70;99.90;;;24.98;54.44;97436.34;5029229;28;20049;-66
2021/06/27 07:54:19;;;;;;;4.22;3.10;;;25.70;99.90;;;24.98;54.30;97441.66;5032306;28;20413;-66
2021/06/27 07:57:08;;;;;;;2.78;2.30;;;25.70;99.90;;;25.23;53.78;97434.63;5029738;28;20048;-66
2021/06/27 07:59:55;;;;;;;3.38;2.47;;;25.90;99.90;;;25.36;52.69;97441.31;5015335;28;20046;-64
2021/06/27 08:02:42;;;;;;;4.05;2.42;;;26.00;99.90;;;25.30;52.79;97437.47;5028521;28;20048;-65
2021/06/27 08:05:30;;;;;;;3.40;2.50;;;26.10;99.90;;;25.30;51.61;97445.44;5023248;28;20073;-65
2021/06/27 08:08:18;;;;;;;3.20;2.55;;;26.20;99.90;;;25.28;54.18;97435.97;5030021;28;20184;-66
2021/06/27 08:11:05;;;;;;;3.63;2.65;;;26.30;99.90;;;25.15;51.55;97434.56;5022443;28;20057;-66
2021/06/27 08:13:53;;;;;;;3.65;2.47;;;26.30;99.90;;;25.12;52.46;97432.25;5030460;28;20524;-66
2021/06/27 08:16:40;;;;;;;4.30;2.58;;;26.50;99.90;;;25.31;51.58;97430.34;5022410;28;20038;-66
2021/06/27 08:19:27;;;;;;;3.25;2.10;;;26.60;99.90;;;25.45;51.36;97427.91;5012438;28;20147;-66
2021/06/27 08:22:15;;;;;;;4.07;2.50;;;26.70;99.90;;;25.29;50.31;97427.00;5029624;28;20042;-67
2021/06/27 08:25:03;;;;;;;2.92;2.33;;;26.50;99.90;;;25.94;50.83;97426.31;5031073;28;20521;-67
2021/06/27 08:27:51;;;;;;;5.00;2.55;;;26.80;99.90;;;25.82;50.24;97417.81;5030904;28;20095;-66
2021/06/27 08:30:39;;;;;;;6.72;2.40;;;26.90;99.90;;;26.00;49.26;97415.84;5030871;28;20117;-68
2021/06/27 08:33:27;;;;;;;4.57;2.25;;;27.00;99.90;;;25.86;48.31;97413.81;5031450;28;20048;-68
2021/06/27 08:36:14;;;;;;;2.67;2.00;;;27.00;99.90;;;26.27;47.74;97425.31;5032134;28;20142;-68
2021/06/27 08:39:03;;;;;;;2.72;1.80;;;27.30;99.90;;;26.92;45.86;97420.84;5029420;28;20521;-68
2021/06/27 08:41:50;;;;;;;5.65;2.03;;;27.60;99.90;;;27.08;45.98;97422.63;5015981;28;20050;-68
2021/06/27 08:44:40;;;;;;;3.15;1.85;;;;;;;27.23;45.25;97415.59;5032082;28;20107;-68
2021/06/27 08:47:29;;;;;;;2.30;1.90;;;28.00;99.90;;;26.82;47.12;97409.56;5029980;28;20099;-68
2021/06/27 08:50:16;;;;;;;3.15;1.90;;;28.40;99.90;;;27.44;44.78;97403.47;5030852;28;20080;-68
2021/06/27 08:53:04;;;;;;;3.10;1.75;;;28.40;99.90;;;27.84;44.60;97404.22;5024904;28;20041;-69
2021/06/27 08:56:05;;;;;;;2.97;1.95;;;28.60;99.90;;;27.43;43.99;97404.47;5028349;28;20037;-69
2021/06/27 08:58:52;;;;;;;3.88;2.10;;;28.80;99.90;;;28.44;43.54;97414.03;5016854;28;20050;-68
2021/06/27 09:01:40;;;;;;;2.60;1.90;;;29.40;99.90;;;29.11;41.89;97401.63;5012808;28;20052;-66
2021/06/27 09:04:28;;;;;;;3.13;1.70;;;29.70;99.90;;;29.31;40.03;97415.19;5030428;28;20052;-66
2021/06/27 09:07:34;;;;;;;2.38;1.67;;;29.70;99.90;;;29.39;38.05;97410.56;5028767;28;20060;-69
2021/06/27 09:10:23;;;;;;;2.35;1.60;;;29.70;99.90;;;30.52;38.20;97418.84;5012099;28;20042;-66
2021/06/27 09:13:11;;;;;;;3.83;1.60;;;30.20;99.90;;;29.67;37.69;97411.69;5027509;28;20053;-66
2021/06/27 09:15:59;;;;;;;2.00;1.40;;;30.00;99.60;;;29.56;39.05;97405.84;5021492;28;20041;-66
2021/06/27 09:18:47;;;;;;;3.17;1.70;;;29.60;99.90;;;29.41;40.15;97399.69;5016954;28;20038;-66
2021/06/27 09:21:34;;;;;;;3.42;1.63;;;29.60;99.90;;;29.58;37.89;97406.47;5020229;28;20053;-66
2021/06/27 09:24:27;;;;;;;2.47;1.38;;;29.70;99.70;;;30.42;37.35;97404.97;5022373;28;20037;-66
2021/06/27 09:27:24;;;;;;;3.50;1.52;;;30.00;99.90;;;31.56;33.29;97399.16;5026007;28;20045;-66
2021/06/27 09:30:21;;;;;;;2.65;1.40;;;30.60;98.40;;;31.34;34.52;97408.34;5017164;28;20041;-66
2021/06/27 09:33:31;;;;;;;2.00;1.13;;;30.80;98.70;;;31.30;33.56;97409.78;5021824;28;20529;-68
2021/06/27 09:36:19;;;;;;;2.53;1.33;;;31.10;97.80;;;29.79;37.15;97402.19;5023295;28;20033;-69
2021/06/27 09:39:09;;;;;;;1.92;1.50;;;30.60;98.30;;;29.21;38.70;97402.16;5029222;28;20126;-66
2021/06/27 09:41:58;;;;;;;3.73;1.50;;;30.00;98.70;;;29.64;38.35;97402.19;5021403;28;20057;-66
2021/06/27 09:45:02;;;;;;;2.03;1.25;;;30.00;99.00;;;29.81;37.00;97400.97;5027582;28;20132;-64
2021/06/27 09:48:06;;;;;;;2.50;1.58;;;30.10;98.60;;;30.58;35.25;97401.16;5015309;28;20054;-65
2021/06/27 09:50:54;;;;;;;3.65;1.52;;;30.30;97.80;;;30.36;35.78;97401.25;5019109;28;20071;-65
2021/06/27 09:53:42;;;;;;;3.03;1.50;;;30.40;98.10;;;31.38;35.57;97401.53;5028598;28;20067;-67
2021/06/27 09:56:38;;;;;;;2.60;1.38;;;30.70;98.40;;;30.13;37.24;97405.94;5025753;28;20462;-67
2021/06/27 09:59:41;;;;;;;3.05;1.60;;;30.40;98.30;;;30.61;35.91;97403.47;5023155;28;20073;-65
2021/06/27 10:02:28;;;;;;;3.53;2.42;;;30.70;98.20;;;29.37;38.09;97403.75;5022421;28;20202;-65
2021/06/27 10:05:23;;;;;;;4.68;1.35;;;30.20;97.90;;;29.31;40.24;97404.50;5012608;28;20095;-66
2021/06/27 10:08:30;;;;;;;2.38;1.27;;;30.00;99.20;;;30.49;35.90;97400.47;5021750;28;20046;-66
2021/06/27 10:11:23;;;;;;;3.42;1.17;;;30.20;98.10;;;29.26;37.59;97396.22;5013158;28;20037;-66
2021/06/27 10:14:11;;;;;;;1.90;1.38;;;29.70;97.70;;;30.96;34.64;97396.25;5027167;28;20356;-66
2021/06/27 10:17:03;;;;;;;1.90;1.25;;;30.10;97.70;;;32.38;34.08;97393.63;5017177;28;20528;-66
2021/06/27 10:19:53;;;;;;;2.17;1.25;;;31.30;98.10;;;31.81;34.29;97387.84;5016554;28;20514;-66
2021/06/27 10:22:42;;;;;;;3.33;1.40;;;31.50;97.40;;;31.67;33.73;97384.31;5026663;28;20046;-66
2021/06/27 10:25:30;;;;;;;1.95;1.42;;;31.80;96.70;;;29.51;36.57;97391.38;5021434;28;20044;-66
2021/06/27 10:28:18;;;;;;;2.75;1.42;;;30.80;96.00;;;30.20;36.07;97396.97;5023040;28;20186;-66
2021/06/27 10:31:05;;;;;;;2.65;1.50;;;30.90;96.70;;;30.12;36.25;97397.09;5029544;28;20115;-65
2021/06/27 10:33:53;;;;;;;2.08;1.27;;;30.80;96.60;;;29.41;35.24;97397.03;5023902;28;20057;-65
2021/06/27 10:36:44;;;;;;;2.28;1.50;;;30.30;95.50;;;28.68;37.37;97401.44;5011158;28;20053;-66
2021/06/27 10:39:31;;;;;;;2.63;1.30;;;29.60;96.30;;;29.16;36.67;97396.53;5012284;28;20045;-66
2021/06/27 10:42:19;;;;;;;1.58;1.13;;;30.00;96.60;;;29.84;36.40;97391.72;5009496;28;20065;-66
2021/06/27 10:45:07;;;;;;;2.97;1.63;;;30.20;96.80;;;29.25;37.81;97384.72;5023756;28;20050;-66
2021/06/27 10:47:54;;;;;;;2.28;1.25;;;29.90;97.20;;;28.68;38.56;97391.59;5008068;28;20092;-65
2021/06/27 10:51:05;;;;;;;2.78;1.40;;;29.70;96.90;;;29.26;37.92;97383.69;5020994;28;20125;-66
2021/06/27 10:54:15;;;;;;;2.05;1.27;;;29.90;97.10;;;29.30;37.45;97379.63;5017716;28;20379;-66
2021/06/27 10:57:18;;;;;;;2.63;1.52;;;30.00;96.90;;;30.83;37.50;97386.25;5017607;28;20046;-65
2021/06/27 11:00:06;;;;;;;3.58;1.30;;;30.70;98.20;;;30.05;34.84;97387.38;5024767;28;20414;-66
2021/06/27 11:03:30;;;;;;;1.75;1.33;;;30.50;95.70;;;30.83;33.94;97380.88;5021847;28;20486;-66
2021/06/27 11:06:18;;;;;;;2.30;1.70;;;31.10;95.70;;;30.82;33.02;97379.25;5013739;28;20490;-66
2021/06/27 11:09:25;;;;;;;3.40;1.30;;;31.40;95.30;;;30.54;34.66;97381.13;5018742;28;20049;-65
2021/06/27 11:12:13;;;;;;;2.20;1.50;;;31.40;95.40;;;30.21;35.62;97379.88;5025023;28;20065;-65
2021/06/27 11:15:13;;;;;;;3.17;1.40;;;31.20;95.90;;;29.54;36.80;97388.31;5030912;28;20069;-66
2021/06/27 11:18:04;;;;;;;3.10;1.58;;;30.70;95.70;;;29.10;36.74;97383.91;5017453;28;20041;-65
2021/06/27 11:20:54;;;;;;;2.60;1.70;;;30.10;95.30;;;29.01;37.48;97375.13;5012847;28;20099;-66
2021/06/27 11:23:52;;;;;;;2.65;1.25;;;30.10;95.90;;;29.43;36.80;97375.47;5031190;28;20041;-66
2021/06/27 11:26:54;;;;;;;2.60;1.40;;;30.20;95.80;;;29.50;38.07;97373.69;5027723;28;20075;-65
2021/06/27 11:29:42;;;;;;;2.58;1.58;;;30.40;96.40;;;29.59;36.34;97377.88;5025769;28;20187;-65
2021/06/27 11:32:30;;;;;;;3.33;1.40;;;30.50;95.70;;;29.36;38.13;97372.72;5035195;28;20048;-66
2021/06/27 11:35:40;;;;;;;2.10;1.35;;;30.30;96.60;;;29.65;37.14;97366.44;5031786;28;20038;-66
2021/06/27 11:38:43;;;;;;;3.28;1.25;;;30.70;96.00;;;29.13;36.69;97372.88;5038410;28;20479;-66
2021/06/27 11:41:38;;;;;;;2.90;1.60;;;30.90;95.20;;;29.19;36.32;97372.09;5018079;28;20068;-66
2021/06/27 11:44:25;;;;;;;1.52;1.20;;;30.60;94.70;;;30.72;35.23;97364.56;5013386;28;20187;-66
2021/06/27 11:47:22;;;;;;;2.25;1.27;;;31.20;95.70;;;31.18;33.14;97369.31;5029482;28;20057;-65
2021/06/27 11:50:30;;;;;;;2.42;1.63;;;31.50;94.60;;;29.88;35.34;97368.06;5028451;28;20042;-66